»·PEaware :: SWA1649 KSAN-KOAK

SWA1649 :: KSAN-KOAK

FLIGHT INFORMATION

Flight Status: Arrived
Operator:
Southwest Airlines
More flights by this operator :: More flights under this callsign
Pilot: Walter P. (10403)
Aircraft: BOEING 737-200
(B732)
More flights by this aircraft type
Origin: KSAN San Diego Intl-Lindbergh
United States
Destination: KOAK Metro Oakland Intl
United States
More flights between these airports :: More routes between these airports
Route: PADRZ2 OROSZ COREZ RGOOD EMZOH3
File this flight plan on PilotEdge
Remarks:
Altitude:
(Current/Filed)
34,000ft
Speed:
(Current/Filed)
427kts
Departed: 23-Jun-19 04:18 PM
Arrived: 23-Jun-19 05:28 PM
Distance/Time
Traveled:
387nm/1:10
Distance/Time
To Go:
Arrived

Flight Plot

Page will automatically refresh every two minutes.


Map Options




Map Legend


Flown Route
Filed Route
Departure Airport
Arrival Airport
Navaid (VOR, NDB)
Fix

Horizontal Profiles

Position Reports

Time Latitude Longitude Heading Altitude Ground
Speed
23-Jun-19 15:39 32.731555 -117.195577 260 26ft 0kts
23-Jun-19 15:39 32.731555 -117.195577 260 26ft 0kts
23-Jun-19 15:41 32.731555 -117.195577 260 26ft 0kts
23-Jun-19 15:42 32.731555 -117.195577 260 26ft 0kts
23-Jun-19 15:42 32.731555 -117.195577 260 26ft 0kts
23-Jun-19 15:43 32.731555 -117.195577 260 26ft 0kts
23-Jun-19 15:45 32.731555 -117.195577 260 26ft 0kts
23-Jun-19 15:45 32.731555 -117.195577 260 26ft 0kts
23-Jun-19 15:46 32.731555 -117.195577 260 26ft 0kts
23-Jun-19 15:47 32.731555 -117.195577 260 26ft 0kts
23-Jun-19 15:48 32.731555 -117.195577 260 26ft 0kts
23-Jun-19 15:49 32.731555 -117.195577 260 26ft 0kts
23-Jun-19 15:50 32.731555 -117.195577 260 26ft 0kts
23-Jun-19 15:51 32.731555 -117.195577 260 26ft 0kts
23-Jun-19 15:52 32.731555 -117.195577 260 26ft 0kts
23-Jun-19 15:53 32.731555 -117.195577 260 26ft 0kts
23-Jun-19 15:54 32.731555 -117.195577 260 26ft 0kts
23-Jun-19 15:55 32.731555 -117.195577 260 26ft 0kts
23-Jun-19 15:56 32.731555 -117.195577 260 26ft 0kts
23-Jun-19 15:57 32.731555 -117.195577 260 26ft 0kts
23-Jun-19 15:58 32.731555 -117.195577 260 26ft 0kts
23-Jun-19 15:59 32.731555 -117.195577 260 26ft 0kts
23-Jun-19 16:00 32.731560 -117.195547 260 26ft 1kts
23-Jun-19 16:01 32.731475 -117.195043 307 26ft 0kts
23-Jun-19 16:02 32.731475 -117.195043 307 26ft 0kts
23-Jun-19 16:03 32.731475 -117.195043 307 26ft 0kts
23-Jun-19 16:04 32.731475 -117.195043 307 26ft 0kts
23-Jun-19 16:05 32.731738 -117.195036 12 26ft 6kts
23-Jun-19 16:06 32.732666 -117.194568 28 26ft 0kts
23-Jun-19 16:07 32.732666 -117.194568 28 26ft 0kts
23-Jun-19 16:08 32.732666 -117.194568 28 26ft 0kts
23-Jun-19 16:09 32.732687 -117.194555 28 26ft 1kts
23-Jun-19 16:10 32.732755 -117.190555 105 26ft 26kts
23-Jun-19 16:11 32.730430 -117.180958 105 26ft 30kts
23-Jun-19 16:12 32.729533 -117.176715 71 26ft 0kts
23-Jun-19 16:13 32.729533 -117.176715 71 26ft 0kts
23-Jun-19 16:14 32.729533 -117.176715 71 26ft 0kts
23-Jun-19 16:15 32.729533 -117.176715 71 26ft 0kts
23-Jun-19 16:16 32.730563 -117.177280 286 26ft 17kts
23-Jun-19 16:17 32.739510 -117.212370 294 767ft 175kts
23-Jun-19 16:18 32.769672 -117.266293 305 2616ft 229kts
23-Jun-19 16:19 32.809915 -117.334349 308 4959ft 270kts
23-Jun-19 16:20 32.856874 -117.407185 308 7784ft 283kts
23-Jun-19 16:21 32.905616 -117.482889 308 10348ft 294kts
23-Jun-19 16:22 32.955694 -117.560851 308 12836ft 299kts
23-Jun-19 16:23 33.007436 -117.641600 308 14652ft 321kts
23-Jun-19 16:24 33.065437 -117.728353 316 16170ft 346kts
23-Jun-19 16:25 33.138707 -117.805551 318 18102ft 351kts
23-Jun-19 16:26 33.215466 -117.882873 319 19768ft 359kts
23-Jun-19 16:27 33.294174 -117.959754 319 21232ft 366kts
23-Jun-19 16:28 33.373899 -118.037737 319 22598ft 371kts
23-Jun-19 16:29 33.452618 -118.114903 319 24339ft 361kts
23-Jun-19 16:30 33.530154 -118.191107 318 26090ft 354kts
23-Jun-19 16:31 33.610096 -118.253834 331 27558ft 352kts
23-Jun-19 16:32 33.694935 -118.301634 332 28785ft 350kts
23-Jun-19 16:33 33.784027 -118.349554 333 29886ft 349kts
23-Jun-19 16:34 33.871760 -118.393894 333 30820ft 348kts
23-Jun-19 16:35 33.961137 -118.439086 333 31661ft 348kts
23-Jun-19 16:36 34.048844 -118.483559 333 32402ft 348kts
23-Jun-19 16:37 34.135844 -118.527798 333 33065ft 348kts
23-Jun-19 16:38 34.225456 -118.573445 333 33668ft 349kts
23-Jun-19 16:39 34.315366 -118.619209 333 34067ft 355kts
23-Jun-19 16:40 34.409072 -118.665484 333 34079ft 372kts
23-Jun-19 16:41 34.500822 -118.726578 326 34077ft 383kts
23-Jun-19 16:42 34.594703 -118.792920 326 34075ft 395kts
23-Jun-19 16:43 34.691076 -118.861284 326 34065ft 404kts
23-Jun-19 16:44 34.788724 -118.930749 326 34064ft 407kts
23-Jun-19 16:45 34.886439 -119.000447 326 34044ft 406kts
23-Jun-19 16:46 34.983745 -119.070056 326 34021ft 403kts
23-Jun-19 16:47 35.080124 -119.139194 326 34022ft 401kts
23-Jun-19 16:48 35.175749 -119.207980 326 34023ft 402kts
23-Jun-19 16:49 35.271182 -119.276817 326 34023ft 403kts
23-Jun-19 16:50 35.367447 -119.346442 326 34022ft 404kts
23-Jun-19 16:51 35.464296 -119.416702 326 33975ft 406kts
23-Jun-19 16:52 35.560116 -119.489281 320 33942ft 404kts
23-Jun-19 16:53 35.647528 -119.576602 318 33937ft 404kts
23-Jun-19 16:54 35.733039 -119.664005 317 33942ft 404kts
23-Jun-19 16:55 35.819642 -119.752835 317 33942ft 405kts
23-Jun-19 16:56 35.906038 -119.842037 315 33943ft 405kts
23-Jun-19 16:57 35.987545 -119.937745 314 33948ft 405kts
23-Jun-19 16:58 36.068634 -120.033968 314 33948ft 405kts
23-Jun-19 16:59 36.148980 -120.129609 314 33951ft 405kts
23-Jun-19 17:00 36.230123 -120.226486 314 33949ft 406kts
23-Jun-19 17:01 36.311288 -120.323695 314 33949ft 406kts
23-Jun-19 17:02 36.392637 -120.421412 314 33948ft 406kts
23-Jun-19 17:03 36.473029 -120.518287 314 33058ft 400kts
23-Jun-19 17:04 36.552623 -120.612499 316 31445ft 391kts
23-Jun-19 17:05 36.633629 -120.702361 316 29630ft 392kts
23-Jun-19 17:06 36.715691 -120.793500 316 27569ft 400kts
23-Jun-19 17:07 36.795900 -120.882612 317 25902ft 388kts
23-Jun-19 17:08 36.875338 -120.970719 318 22850ft 379kts
23-Jun-19 17:09 36.951711 -121.055636 318 20576ft 367kts
23-Jun-19 17:10 37.027389 -121.140024 318 18809ft 358kts
23-Jun-19 17:11 37.099928 -121.221136 318 17144ft 350kts
23-Jun-19 17:12 37.170967 -121.302313 317 15241ft 341kts
23-Jun-19 17:13 37.239449 -121.381915 317 12676ft 334kts
23-Jun-19 17:14 37.306306 -121.459823 317 10242ft 323kts
23-Jun-19 17:15 37.365260 -121.528726 317 9464ft 278kts
23-Jun-19 17:16 37.422006 -121.593814 317 8390ft 271kts
23-Jun-19 17:17 37.470970 -121.664113 311 7290ft 266kts
23-Jun-19 17:18 37.510505 -121.737441 304 6976ft 229kts
23-Jun-19 17:19 37.536032 -121.815917 280 7028ft 267kts
23-Jun-19 17:20 37.546829 -121.905410 279 6122ft 256kts
23-Jun-19 17:21 37.559281 -121.992370 296 4126ft 246kts
23-Jun-19 17:22 37.596897 -122.058229 308 3156ft 222kts
23-Jun-19 17:23 37.634058 -122.113357 308 2117ft 205kts
23-Jun-19 17:24 37.666340 -122.161628 308 1117ft 148kts
23-Jun-19 17:25 37.690707 -122.198161 308 394ft 137kts
23-Jun-19 17:26 37.712831 -122.231295 310 16ft 77kts
23-Jun-19 17:27 37.719687 -122.239900 42 15ft 13kts
23-Jun-19 17:28 37.717933 -122.235568 121 15ft 22kts
23-Jun-19 17:29 37.713795 -122.228981 131 15ft 25kts
23-Jun-19 17:31 37.711377 -122.223875 36 15ft 10kts
23-Jun-19 17:32 37.713841 -122.220998 49 15ft 12kts
23-Jun-19 17:33 37.715176 -122.217609 137 15ft 13kts
23-Jun-19 17:34 37.712046 -122.216623 139 15ft 9kts
23-Jun-19 17:35 37.711558 -122.216076 140 15ft 0kts
23-Jun-19 17:36 37.711558 -122.216076 140 15ft 0kts

Navigation Log

Ident Type
Flight plan parsing failed, navigation log unavailable